Time;durP1;ratioP1;P1;durP2;ratioP2;P2;SDS_P1;SDS_P2;PMS_P1;PMS_P2;Temp;Humidity;BMP_temperature;BMP_pressure;BME280_temperature;BME280_humidity;BME280_pressure;Samples;Min_cycle;Max_cycle;Signal;HPM_P1;HPM_P2
2021/12/19 00:00:27;;;;;;;19.63;9.07;;;;;;;8.01;68.57;103113.88;4989813;28;20453;-82
2021/12/19 00:03:07;;;;;;;22.77;10.63;;;;;;;8.03;68.06;103110.50;4995001;28;20033;-82
2021/12/19 00:11:23;;;;;;;22.88;9.77;;;;;;;8.15;67.82;103097.00;4971229;28;20034;-82
2021/12/19 00:13:50;;;;;;;20.02;9.25;;;;;;;7.94;68.68;103099.03;4966424;28;20065;-82
2021/12/19 00:16:16;;;;;;;19.98;8.65;;;;;;;7.84;69.50;103091.84;4971389;28;20121;-82
2021/12/19 00:18:43;;;;;;;25.30;10.63;;;;;;;7.91;69.20;103098.97;4986086;28;20293;-82
2021/12/19 00:21:11;;;;;;;20.10;9.30;;;;;;;7.98;69.05;103093.97;4982886;28;20033;-82
2021/12/19 00:23:37;;;;;;;25.13;10.15;;;;;;;8.04;68.80;103088.09;4988543;28;20183;-82
2021/12/19 00:26:03;;;;;;;24.95;11.77;;;;;;;8.04;68.89;103082.91;4983404;28;20030;-82
2021/12/19 00:28:29;;;;;;;26.88;10.43;;;;;;;7.99;68.50;103084.50;4986927;28;20046;-82
2021/12/19 00:30:55;;;;;;;25.20;11.40;;;;;;;8.11;68.33;103090.00;4979577;28;20038;-82
2021/12/19 00:33:20;;;;;;;22.52;9.77;;;;;;;8.09;68.54;103081.31;4984188;28;20038;-82
2021/12/19 00:35:46;;;;;;;20.77;9.77;;;;;;;8.15;68.13;103074.56;4988515;28;20029;-82
2021/12/19 00:38:11;;;;;;;24.08;10.15;;;;;;;8.09;68.94;103087.38;4987088;28;20038;-82
2021/12/19 00:40:37;;;;;;;27.20;11.75;;;;;;;8.13;67.44;103081.44;4977880;28;20077;-82
2021/12/19 00:43:10;;;;;;;24.10;10.80;;;;;;;8.13;68.12;103075.38;4979634;28;20459;-82
2021/12/19 00:45:38;;;;;;;28.75;10.23;;;;;;;8.04;68.66;103086.38;4980969;28;20038;-82
2021/12/19 00:48:06;;;;;;;26.08;10.88;;;;;;;8.12;67.61;103073.63;4984002;28;20033;-82
2021/12/19 00:50:33;;;;;;;24.98;11.13;;;;;;;7.91;68.87;103081.69;4995144;28;20066;-82
2021/12/19 00:52:58;;;;;;;24.33;10.27;;;;;;;8.12;67.53;103074.50;4985692;28;20053;-82
2021/12/19 00:55:27;;;;;;;24.40;11.27;;;;;;;8.18;67.45;103072.06;4989488;28;20035;-82
2021/12/19 00:57:54;;;;;;;26.27;11.45;;;;;;;8.10;67.74;103065.81;4987279;28;20415;-82
2021/12/19 01:00:24;;;;;;;25.38;11.38;;;;;;;7.97;67.63;103078.41;4989581;28;20161;-82
2021/12/19 01:02:52;;;;;;;25.88;11.82;;;;;;;8.05;67.43;103061.38;4987286;28;20381;-82
2021/12/19 01:05:18;;;;;;;26.92;12.13;;;;;;;8.11;67.70;103056.34;4981362;28;20035;-82
2021/12/19 01:07:44;;;;;;;31.73;13.80;;;;;;;7.99;68.75;103059.50;4984270;28;20042;-82
2021/12/19 01:10:09;;;;;;;29.67;12.38;;;;;;;7.73;68.36;103057.94;4982383;28;20041;-82
2021/12/19 01:12:39;;;;;;;28.08;12.55;;;;;;;8.04;68.62;103052.72;4987475;28;20050;-82
2021/12/19 01:15:06;;;;;;;35.50;14.85;;;;;;;7.88;68.25;103062.66;4989022;28;20039;-82
2021/12/19 01:17:31;;;;;;;32.45;13.00;;;;;;;7.83;67.95;103049.56;4986944;28;20027;-82
2021/12/19 01:20:00;;;;;;;32.47;13.32;;;;;;;7.77;68.33;103051.13;4985694;28;20042;-82
2021/12/19 01:22:25;;;;;;;33.38;14.45;;;;;;;7.97;68.36;103053.38;4991999;28;20062;-82
2021/12/19 01:24:51;;;;;;;25.98;12.15;;;;;;;8.04;67.17;103050.13;4993742;28;20044;-82
2021/12/19 01:27:16;;;;;;;33.15;12.93;;;;;;;8.05;68.41;103049.31;4991045;28;20038;-83
2021/12/19 01:29:41;;;;;;;31.70;12.18;;;;;;;8.06;67.92;103042.41;4989884;28;20022;-82
2021/12/19 01:32:07;;;;;;;29.73;11.93;;;;;;;7.98;68.58;103054.28;4990429;28;20096;-82
2021/12/19 01:34:32;;;;;;;30.67;12.52;;;;;;;8.02;68.09;103043.19;4988064;28;20050;-82
2021/12/19 01:36:58;;;;;;;31.92;12.05;;;;;;;8.10;68.04;103052.00;4987535;28;20034;-82
2021/12/19 01:39:23;;;;;;;29.95;11.90;;;;;;;8.14;67.72;103039.19;4989860;28;20030;-82
2021/12/19 01:41:56;;;;;;;25.80;11.90;;;;;;;8.23;67.40;103039.41;5000239;28;20036;-81
2021/12/19 01:44:23;;;;;;;25.73;11.25;;;;;;;8.05;67.84;103041.53;4989917;28;20046;-82
2021/12/19 01:46:49;;;;;;;25.13;11.60;;;;;;;7.78;68.22;103047.69;4988716;28;20035;-82
2021/12/19 01:49:16;;;;;;;28.60;12.50;;;;;;;8.14;67.27;103040.91;4986159;28;20041;-82
2021/12/19 01:51:42;;;;;;;29.73;12.20;;;;;;;7.99;67.48;103038.81;4989643;28;20034;-82
2021/12/19 01:54:08;;;;;;;28.88;12.20;;;;;;;7.97;67.54;103032.69;4989200;28;20026;-82
2021/12/19 01:56:33;;;;;;;32.05;12.30;;;;;;;8.02;67.23;103031.13;4992300;28;20029;-82
2021/12/19 01:58:59;;;;;;;29.10;12.80;;;;;;;7.98;68.43;103026.69;5003510;28;20510;-82
2021/12/19 02:01:25;;;;;;;28.13;11.38;;;;;;;7.93;67.82;103032.59;4991713;28;20045;-82
2021/12/19 02:03:50;;;;;;;27.98;12.35;;;;;;;7.98;68.43;103018.91;4991700;28;20034;-82
2021/12/19 02:06:16;;;;;;;24.23;10.57;;;;;;;8.00;68.40;103013.81;4986736;28;20073;-82
2021/12/19 02:08:42;;;;;;;26.52;11.52;;;;;;;7.98;67.26;103026.69;4993023;28;20030;-82
2021/12/19 02:11:07;;;;;;;25.67;11.00;;;;;;;8.17;67.10;103020.25;4985272;28;20037;-82
2021/12/19 02:13:34;;;;;;;25.50;10.45;;;;;;;8.15;67.17;103019.34;4992094;28;20551;-82
2021/12/19 02:15:59;;;;;;;32.85;13.27;;;;;;;7.97;67.32;103011.97;4992228;28;20042;-82
2021/12/19 02:18:25;;;;;;;25.80;11.90;;;;;;;8.06;67.20;103008.75;4987353;28;20729;-82
2021/12/19 02:20:53;;;;;;;26.02;11.38;;;;;;;8.08;66.90;103007.97;4983482;28;20045;-82
2021/12/19 02:23:21;;;;;;;28.55;12.32;;;;;;;7.85;67.85;103006.50;4992741;28;20495;-82
2021/12/19 02:25:48;;;;;;;33.10;12.23;;;;;;;8.03;67.12;103006.06;4982873;28;20055;-82
2021/12/19 02:28:14;;;;;;;31.67;13.35;;;;;;;7.88;67.95;103000.53;4990475;28;20034;-82
2021/12/19 02:30:40;;;;;;;31.73;12.27;;;;;;;8.00;67.33;102995.69;4988753;28;20521;-82
2021/12/19 02:33:11;;;;;;;33.15;12.35;;;;;;;7.90;68.43;102998.88;4991879;28;20479;-82
2021/12/19 02:35:37;;;;;;;31.45;11.93;;;;;;;7.84;68.37;102999.59;4990690;28;20152;-82
2021/12/19 02:38:29;;;;;;;30.90;12.93;;;;;;;8.00;68.23;102998.28;4987589;28;20734;-82
2021/12/19 02:49:19;;;;;;;33.72;13.05;;;;;;;7.87;68.07;102991.03;4984300;28;20037;-82
2021/12/19 02:51:45;;;;;;;29.08;12.20;;;;;;;7.93;68.37;102986.88;4994613;28;20033;-82
2021/12/19 02:54:11;;;;;;;32.67;12.77;;;;;;;7.91;68.67;102983.34;4991980;28;20029;-82
2021/12/19 02:56:36;;;;;;;30.08;13.10;;;;;;;7.35;70.55;102988.75;4986680;28;20049;-82
2021/12/19 02:59:02;;;;;;;33.80;14.02;;;;;;;7.58;69.66;102985.94;4988572;28;20049;-82
2021/12/19 03:01:27;;;;;;;33.72;12.40;;;;;;;7.59;69.48;102985.13;4985615;28;20419;-82
2021/12/19 03:03:53;;;;;;;34.50;13.90;;;;;;;7.84;68.32;102981.47;4988380;28;20035;-82
2021/12/19 03:06:19;;;;;;;31.83;13.43;;;;;;;7.85;68.99;102987.53;4989615;28;20034;-82
2021/12/19 03:08:48;;;;;;;33.95;12.65;;;;;;;7.81;68.73;102981.41;4985425;28;20070;-82
2021/12/19 03:19:28;;;;;;;35.45;12.23;;;;;;;7.60;69.47;102975.66;4986612;28;20057;-82
2021/12/19 03:21:54;;;;;;;27.15;12.35;;;;;;;7.79;69.33;102975.28;4986688;28;20046;-82
2021/12/19 03:24:19;;;;;;;31.67;12.50;;;;;;;7.71;69.52;102974.22;4986582;28;20104;-82
2021/12/19 03:26:45;;;;;;;37.10;12.57;;;;;;;7.97;68.75;102967.97;4981950;28;20084;-82
2021/12/19 03:29:10;;;;;;;27.25;11.38;;;;;;;7.98;68.55;102963.69;4985858;28;20042;-82
2021/12/19 03:31:36;;;;;;;26.67;11.55;;;;;;;7.57;69.56;102958.34;4989180;28;21039;-82
2021/12/19 03:34:02;;;;;;;29.75;11.88;;;;;;;7.62;70.64;102966.22;4977718;28;20045;-82
2021/12/19 03:36:28;;;;;;;32.70;11.75;;;;;;;7.83;68.89;102961.59;4988384;28;20392;-82
2021/12/19 03:38:58;;;;;;;25.10;10.75;;;;;;;7.92;69.15;102953.19;4983484;28;20050;-82
2021/12/19 03:41:33;;;;;;;27.60;10.65;;;;;;;8.04;68.58;102946.59;4980517;28;20523;-82
2021/12/19 03:43:58;;;;;;;31.83;11.63;;;;;;;8.16;68.32;102948.59;4987283;28;20038;-82
2021/12/19 03:46:24;;;;;;;30.15;12.40;;;;;;;7.89;69.39;102956.56;4985684;28;20038;-82
2021/12/19 03:48:49;;;;;;;31.10;10.95;;;;;;;7.65;69.64;102946.50;4991562;28;20034;-82
2021/12/19 03:51:15;;;;;;;25.77;10.38;;;;;;;7.56;70.90;102946.25;4986091;28;20149;-82
2021/12/19 03:53:40;;;;;;;23.05;9.65;;;;;;;7.74;69.94;102947.56;4987410;28;20046;-82
2021/12/19 03:56:06;;;;;;;28.42;10.18;;;;;;;7.92;69.66;102942.84;4983525;28;20038;-82
2021/12/19 03:58:31;;;;;;;24.13;11.15;;;;;;;7.90;68.88;102934.16;4986983;28;20039;-82
2021/12/19 04:01:00;;;;;;;27.70;10.52;;;;;;;7.63;69.95;102936.94;4984268;28;20045;-82
2021/12/19 04:03:26;;;;;;;31.58;11.32;;;;;;;7.97;68.94;102936.94;4987092;28;20035;-82
2021/12/19 04:05:52;;;;;;;23.85;10.13;;;;;;;7.93;69.08;102929.94;4991675;28;20494;-82
2021/12/19 04:08:19;;;;;;;24.73;10.65;;;;;;;8.00;68.82;102930.97;4990009;28;20042;-82
2021/12/19 04:10:46;;;;;;;25.45;10.40;;;;;;;8.08;68.32;102930.31;4983041;28;20030;-82
2021/12/19 04:13:12;;;;;;;23.52;9.68;;;;;;;7.82;69.87;102923.63;4982083;28;20121;-82
2021/12/19 04:15:38;;;;;;;28.05;9.40;;;;;;;7.95;69.32;102929.97;4984514;28;20553;-82
2021/12/19 04:18:04;;;;;;;24.92;10.10;;;;;;;7.97;69.23;102921.41;4988535;28;20038;-83
2021/12/19 04:20:29;;;;;;;26.38;9.18;;;;;;;8.13;69.01;102920.06;4990396;28;20134;-82
2021/12/19 04:22:54;;;;;;;24.45;9.77;;;;;;;8.05;69.06;102922.47;5004634;28;20030;-82
2021/12/19 04:25:20;;;;;;;25.88;10.23;;;;;;;8.01;68.84;102919.75;4984682;28;20111;-82
2021/12/19 04:27:46;;;;;;;25.77;9.57;;;;;;;7.96;69.66;102914.50;4986896;28;20042;-82
2021/12/19 04:30:18;;;;;;;26.35;10.57;;;;;;;7.86;69.73;102917.69;4987256;28;20033;-82
2021/12/19 04:32:48;;;;;;;26.02;10.27;;;;;;;7.91;69.49;102905.72;4995730;28;20029;-82
2021/12/19 04:35:14;;;;;;;25.88;8.90;;;;;;;8.04;69.23;102904.31;4987416;28;20064;-82
2021/12/19 04:53:36;;;;;;;26.48;9.70;;;;;;;7.85;69.95;102879.69;4987739;28;20060;-82
2021/12/19 04:59:07;;;;;;;21.73;8.23;;;;;;;7.84;69.17;102880.56;4990773;28;20072;-82
2021/12/19 05:04:20;;;;;;;20.33;8.90;;;;;;;7.92;69.79;102871.25;4992903;28;20048;-82
2021/12/19 05:14:01;;;;;;;20.33;8.30;;;;;;;8.03;68.18;102869.78;5001369;28;20026;-82
2021/12/19 05:15:03;;;;;;;18.55;7.35;;;;;;;7.95;69.71;102862.69;4993340;28;20434;-82
2021/12/19 05:17:30;;;;;;;16.88;6.97;;;;;;;7.68;70.84;102862.91;4987140;28;20030;-82
2021/12/19 05:22:44;;;;;;;15.15;6.78;;;;;;;7.66;70.82;102857.72;4990625;28;20053;-82
2021/12/19 05:25:14;;;;;;;15.88;6.63;;;;;;;7.70;70.52;102861.25;4993458;28;20026;-82
2021/12/19 05:27:54;;;;;;;13.90;6.65;;;;;;;7.58;70.51;102861.81;4990958;28;20382;-82
2021/12/19 05:30:20;;;;;;;15.85;6.25;;;;;;;7.74;70.03;102857.88;4988109;28;20129;-82
2021/12/19 05:32:47;;;;;;;16.75;6.53;;;;;;;7.54;71.79;102859.13;4994442;28;20034;-82
2021/12/19 05:35:20;;;;;;;15.05;6.15;;;;;;;7.90;70.15;102862.59;4989721;28;20157;-82
2021/12/19 05:45:58;;;;;;;14.00;5.78;;;;;;;7.72;70.12;102861.28;4990030;28;20088;-82
2021/12/19 05:48:23;;;;;;;14.18;5.63;;;;;;;7.65;70.01;102863.72;4993945;28;20487;-82
2021/12/19 05:50:49;;;;;;;15.18;6.20;;;;;;;7.87;69.62;102859.06;4993645;28;20114;-82
2021/12/19 05:53:15;;;;;;;14.32;6.88;;;;;;;7.86;69.30;102857.28;4992319;28;20041;-82
2021/12/19 05:55:41;;;;;;;14.00;5.93;;;;;;;7.69;70.56;102855.19;4989637;28;20730;-82
2021/12/19 05:58:07;;;;;;;15.30;6.07;;;;;;;7.82;70.51;102858.09;4987837;28;20054;-82
2021/12/19 06:00:33;;;;;;;13.18;6.10;;;;;;;7.73;70.92;102861.31;4992452;28;20104;-82
2021/12/19 06:03:00;;;;;;;17.98;5.93;;;;;;;7.74;70.51;102863.06;4991034;28;20030;-82
2021/12/19 06:05:26;;;;;;;15.75;5.93;;;;;;;7.71;69.72;102852.63;4990324;28;20026;-82
2021/12/19 06:07:51;;;;;;;16.88;6.40;;;;;;;7.66;70.44;102852.53;4988034;28;20041;-82
2021/12/19 06:10:17;;;;;;;15.30;6.10;;;;;;;7.76;70.38;102848.44;4986167;28;20515;-82
2021/12/19 06:12:43;;;;;;;18.73;6.93;;;;;;;7.79;70.10;102840.75;4991370;28;20096;-82
2021/12/19 06:15:10;;;;;;;12.52;6.07;;;;;;;7.97;69.26;102838.59;4996078;28;20025;-82
2021/12/19 06:17:38;;;;;;;14.25;5.95;;;;;;;7.88;69.15;102840.13;4991352;28;20112;-82
2021/12/19 06:20:04;;;;;;;15.40;7.10;;;;;;;7.98;69.29;102837.75;4991125;28;20503;-82
2021/12/19 06:22:29;;;;;;;14.10;6.28;;;;;;;7.98;69.52;102831.69;4991283;28;20038;-82
2021/12/19 06:24:55;;;;;;;16.65;6.40;;;;;;;7.73;70.03;102829.41;4966700;28;20571;-82
2021/12/19 06:27:20;;;;;;;16.73;7.22;;;;;;;7.76;70.27;102838.09;4988752;28;20504;-82
2021/12/19 06:29:46;;;;;;;14.82;6.30;;;;;;;7.72;70.01;102833.69;4992460;28;20022;-82
2021/12/19 06:32:11;;;;;;;15.55;6.05;;;;;;;7.88;69.66;102827.19;4986841;28;20042;-82
2021/12/19 06:34:36;;;;;;;12.70;6.00;;;;;;;7.84;69.39;102820.16;5000084;28;20038;-82
2021/12/19 06:37:02;;;;;;;14.43;5.95;;;;;;;7.91;69.33;102820.31;4989316;28;20045;-82
2021/12/19 06:39:27;;;;;;;12.48;5.80;;;;;;;7.90;69.29;102823.78;4993574;28;20042;-82
2021/12/19 06:41:53;;;;;;;14.50;6.40;;;;;;;7.63;69.80;102826.59;4987763;28;20037;-82
2021/12/19 06:44:18;;;;;;;14.95;6.40;;;;;;;7.84;69.36;102828.81;4990579;28;20658;-82
2021/12/19 06:46:44;;;;;;;12.68;6.00;;;;;;;7.66;70.65;102828.38;4987035;28;20137;-82
2021/12/19 06:49:10;;;;;;;14.02;6.25;;;;;;;7.65;70.67;102819.75;4981387;28;20133;-82
2021/12/19 06:51:36;;;;;;;12.90;6.00;;;;;;;7.73;69.44;102830.28;4987816;28;20509;-82
2021/12/19 06:54:02;;;;;;;16.02;6.32;;;;;;;7.83;69.31;102823.59;4987185;28;20074;-82
2021/12/19 06:56:29;;;;;;;11.75;5.60;;;;;;;7.74;69.36;102820.78;5002679;28;20407;-82
2021/12/19 06:58:54;;;;;;;12.60;6.32;;;;;;;7.79;69.77;102814.03;4994384;28;20038;-82
2021/12/19 07:01:20;;;;;;;10.88;5.70;;;;;;;7.65;69.59;102811.97;4983806;28;20506;-82
2021/12/19 07:03:45;;;;;;;11.50;5.55;;;;;;;7.65;70.40;102814.56;4985552;28;20042;-82
2021/12/19 07:06:11;;;;;;;12.68;5.95;;;;;;;7.84;69.76;102812.41;4988939;28;20038;-82
2021/12/19 07:08:36;;;;;;;11.93;5.32;;;;;;;7.89;68.96;102803.03;4989561;28;20554;-82
2021/12/19 07:11:02;;;;;;;12.35;5.75;;;;;;;7.82;69.09;102804.59;4987564;28;20065;-82
2021/12/19 07:13:27;;;;;;;11.77;5.03;;;;;;;7.71;69.52;102811.25;4979146;28;20074;-82
2021/12/19 07:15:55;;;;;;;13.45;5.25;;;;;;;7.99;68.85;102808.47;4988184;28;20030;-82
2021/12/19 07:18:20;;;;;;;11.43;5.15;;;;;;;7.82;68.57;102803.75;4989691;28;20054;-82
2021/12/19 07:20:46;;;;;;;9.68;4.68;;;;;;;7.86;68.98;102806.44;4988231;28;20084;-82
2021/12/19 07:23:13;;;;;;;12.63;5.60;;;;;;;7.69;69.76;102807.75;4988169;28;20723;-82
2021/12/19 07:25:39;;;;;;;12.27;5.80;;;;;;;7.81;69.26;102808.03;4985821;28;20038;-82
2021/12/19 07:28:04;;;;;;;14.57;5.38;;;;;;;7.68;70.29;102806.88;4984453;28;20383;-82
2021/12/19 07:30:31;;;;;;;11.43;5.22;;;;;;;7.63;69.39;102802.44;4987093;28;20487;-82
2021/12/19 07:32:57;;;;;;;12.55;6.00;;;;;;;7.35;70.56;102803.47;4989714;28;21530;-82
2021/12/19 07:35:23;;;;;;;12.80;5.47;;;;;;;7.79;68.76;102799.34;4990207;28;20068;-82
2021/12/19 07:37:51;;;;;;;14.52;5.97;;;;;;;7.65;69.10;102791.28;4984611;28;20034;-82
2021/12/19 07:40:19;;;;;;;14.25;5.97;;;;;;;7.76;68.89;102796.69;4986966;28;20042;-82
2021/12/19 07:42:45;;;;;;;12.10;5.57;;;;;;;7.83;69.01;102801.19;4985334;28;20045;-82
2021/12/19 07:45:11;;;;;;;12.85;6.10;;;;;;;7.64;69.65;102797.28;4987668;28;20400;-82
2021/12/19 07:47:39;;;;;;;14.55;6.68;;;;;;;7.75;69.83;102794.97;4989806;28;20410;-82
2021/12/19 07:50:06;;;;;;;10.80;5.18;;;;;;;7.87;68.87;102790.06;4988217;28;20034;-82
2021/12/19 07:52:32;;;;;;;15.60;6.85;;;;;;;7.72;69.18;102789.72;4988176;28;20627;-82
2021/12/19 07:54:57;;;;;;;14.30;6.20;;;;;;;7.89;68.81;102790.97;4988102;28;20129;-82
2021/12/19 07:57:23;;;;;;;15.23;6.32;;;;;;;7.87;68.89;102786.59;4983239;28;20511;-82
2021/12/19 07:59:48;;;;;;;15.80;6.45;;;;;;;7.87;69.30;102784.91;4987092;28;20498;-82
2021/12/19 08:02:14;;;;;;;12.88;5.93;;;;;;;7.81;68.89;102782.16;4983441;28;20038;-82
2021/12/19 08:04:39;;;;;;;14.75;6.43;;;;;;;7.76;69.47;102783.75;4986328;28;20065;-82
2021/12/19 08:07:05;;;;;;;13.05;6.22;;;;;;;7.79;69.31;102773.47;4987563;28;20449;-82
2021/12/19 08:09:39;;;;;;;13.38;5.45;;;;;;;7.72;69.64;102776.78;4986084;28;20038;-82
2021/12/19 08:12:06;;;;;;;15.30;5.80;;;;;;;7.77;69.83;102775.16;4986341;28;20023;-82
2021/12/19 08:14:31;;;;;;;11.65;5.18;;;;;;;7.77;69.03;102772.59;4986241;28;20034;-82
2021/12/19 08:16:57;;;;;;;13.18;5.72;;;;;;;7.74;69.06;102772.50;4984475;28;20042;-82
2021/12/19 08:19:22;;;;;;;14.13;6.20;;;;;;;7.77;69.45;102776.88;4986705;28;20038;-82
2021/12/19 08:21:48;;;;;;;15.23;6.50;;;;;;;7.99;67.89;102780.00;4992999;28;20069;-82
2021/12/19 08:24:14;;;;;;;13.85;6.82;;;;;;;7.80;68.73;102776.94;4993938;28;20046;-82
2021/12/19 08:26:42;;;;;;;16.23;7.82;;;;;;;7.83;68.95;102777.91;4993107;28;20080;-82
2021/12/19 08:29:09;;;;;;;16.25;7.97;;;;;;;7.78;68.90;102770.88;4989824;28;20410;-82
2021/12/19 08:31:34;;;;;;;14.10;6.80;;;;;;;7.66;69.51;102764.59;4985736;28;20065;-82
2021/12/19 08:34:00;;;;;;;14.65;7.22;;;;;;;7.49;69.84;102767.63;4993347;28;20670;-83
2021/12/19 08:36:26;;;;;;;13.50;6.57;;;;;;;7.69;69.64;102764.66;4991428;28;20057;-83
2021/12/19 08:38:52;;;;;;;15.38;6.88;;;;;;;7.70;69.20;102766.38;4990510;28;20541;-83
2021/12/19 08:41:18;;;;;;;16.00;7.88;;;;;;;7.72;69.31;102768.16;4986677;28;20046;-82
2021/12/19 08:43:44;;;;;;;16.83;8.65;;;;;;;7.74;68.98;102767.34;4985603;28;20057;-83
2021/12/19 08:46:11;;;;;;;18.23;7.78;;;;;;;7.91;68.62;102766.00;4984767;28;20606;-83
2021/12/19 08:48:38;;;;;;;18.88;7.57;;;;;;;7.81;68.35;102770.94;5002099;28;20518;-82
2021/12/19 08:51:03;;;;;;;14.32;7.03;;;;;;;7.71;69.01;102775.03;4989028;28;20022;-83
2021/12/19 08:53:29;;;;;;;18.58;8.05;;;;;;;7.51;69.66;102776.28;4993913;28;20147;-82
2021/12/19 08:55:55;;;;;;;18.77;7.90;;;;;;;7.60;69.17;102777.38;4986690;28;20088;-82
2021/12/19 08:58:20;;;;;;;13.52;6.68;;;;;;;7.72;67.41;102775.91;4986217;28;20031;-82
2021/12/19 09:00:46;;;;;;;13.13;5.53;;;;;;;7.71;67.20;102769.84;4990436;28;20161;-87
2021/12/19 09:03:11;;;;;;;11.85;4.63;;;;;;;7.40;67.88;102780.34;4979886;28;20019;-87
2021/12/19 09:05:37;;;;;;;8.27;4.38;;;;;;;7.72;65.87;102766.44;4989886;28;20045;-87
2021/12/19 09:08:03;;;;;;;8.13;3.53;;;;;;;7.64;66.69;102765.41;4989459;28;20045;-87
2021/12/19 09:10:29;;;;;;;9.40;3.67;;;;;;;7.69;65.68;102779.31;4982713;28;20045;-87
2021/12/19 09:12:54;;;;;;;5.82;2.90;;;;;;;7.59;65.04;102767.00;4982260;28;20058;-87
2021/12/19 09:15:20;;;;;;;7.22;3.13;;;;;;;7.64;65.31;102773.16;4983859;28;20092;-87
2021/12/19 09:17:46;;;;;;;5.60;3.10;;;;;;;7.56;65.02;102774.69;4989431;28;20022;-87
2021/12/19 09:20:12;;;;;;;7.85;2.90;;;;;;;7.45;65.18;102763.22;4985145;28;20084;-87
2021/12/19 09:22:38;;;;;;;4.63;2.35;;;;;;;7.29;65.48;102764.56;4986559;28;20034;-87
2021/12/19 09:25:05;;;;;;;2.80;1.55;;;;;;;7.38;64.48;102774.25;4984221;28;20077;-87
2021/12/19 09:27:30;;;;;;;3.33;1.67;;;;;;;7.18;65.01;102771.19;4986102;28;20035;-87
2021/12/19 09:29:55;;;;;;;3.65;1.60;;;;;;;7.53;64.54;102761.66;4987866;28;20080;-88
2021/12/19 09:32:21;;;;;;;1.35;0.93;;;;;;;7.76;63.97;102763.06;4984407;28;20109;-88
2021/12/19 09:34:46;;;;;;;1.52;0.88;;;;;;;7.52;64.90;102770.28;4985169;28;20074;-88
2021/12/19 09:37:13;;;;;;;3.25;0.98;;;;;;;7.56;64.69;102765.22;4988406;28;20046;-87
2021/12/19 09:39:39;;;;;;;2.40;1.20;;;;;;;7.82;63.70;102759.75;4987197;28;20034;-88
2021/12/19 09:42:13;;;;;;;3.53;1.38;;;;;;;7.60;65.34;102763.56;4995834;28;20035;-87
2021/12/19 09:44:40;;;;;;;3.42;1.20;;;;;;;7.91;64.42;102758.22;4988358;28;20759;-87
2021/12/19 09:47:07;;;;;;;2.15;1.20;;;;;;;7.59;65.27;102761.81;4988825;28;20038;-87
2021/12/19 09:49:34;;;;;;;2.03;1.00;;;;;;;7.37;65.26;102773.38;4986990;28;20538;-87
2021/12/19 09:52:01;;;;;;;2.13;1.40;;;;;;;7.75;65.07;102770.81;4985495;28;20066;-87
2021/12/19 09:54:28;;;;;;;1.88;1.30;;;;;;;7.80;63.83;102766.59;4985124;28;20073;-88
2021/12/19 09:56:54;;;;;;;2.08;1.30;;;;;;;7.70;64.40;102758.63;4988371;28;20023;-87
2021/12/19 09:59:21;;;;;;;2.35;1.30;;;;;;;7.70;64.61;102755.19;4986049;28;20050;-87
2021/12/19 10:01:49;;;;;;;3.05;1.30;;;;;;;7.88;64.50;102749.56;4994248;28;20059;-87
2021/12/19 10:04:42;;;;;;;3.03;1.20;;;;;;;7.91;63.71;102747.88;5002304;28;20042;-87
2021/12/19 10:07:09;;;;;;;3.65;1.50;;;;;;;7.63;64.63;102741.25;4988961;28;20034;-87
2021/12/19 10:09:50;;;;;;;4.72;2.17;;;;;;;7.63;65.55;102740.38;4988185;28;20394;-87
2021/12/19 10:14:59;;;;;;;5.95;2.95;;;;;;;7.59;65.17;102738.53;4986407;28;20109;-87
2021/12/19 10:17:25;;;;;;;5.75;2.88;;;;;;;7.60;65.89;102733.41;4994082;28;20030;-87
2021/12/19 10:19:57;;;;;;;4.70;2.63;;;;;;;7.50;65.68;102730.56;4989273;28;20042;-87
2021/12/19 10:22:36;;;;;;;6.43;2.97;;;;;;;7.59;65.90;102723.91;4986214;28;20069;-86
2021/12/19 10:25:21;;;;;;;4.80;2.40;;;;;;;7.51;65.58;102712.53;4998419;28;20030;-87
2021/12/19 10:27:56;;;;;;;4.45;2.90;;;;;;;7.39;66.41;102713.94;4985127;28;20031;-87
2021/12/19 10:30:24;;;;;;;4.18;2.13;;;;;;;7.77;64.68;102709.63;4986512;28;20045;-87
2021/12/19 10:32:55;;;;;;;2.85;1.48;;;;;;;7.73;64.71;102702.66;4991797;28;20029;-87
2021/12/19 10:35:27;;;;;;;4.25;1.80;;;;;;;7.80;63.93;102702.78;4998783;28;20053;-87
2021/12/19 10:37:53;;;;;;;4.75;2.10;;;;;;;7.61;65.38;102695.50;4982175;28;20069;-88
2021/12/19 10:40:19;;;;;;;3.83;1.98;;;;;;;7.87;64.72;102694.34;4990437;28;20061;-87
2021/12/19 10:42:49;;;;;;;3.17;1.75;;;;;;;7.91;64.25;102687.50;4986087;28;20068;-87
2021/12/19 10:45:30;;;;;;;3.60;2.13;;;;;;;7.77;65.30;102678.56;4986305;28;20049;-87
2021/12/19 10:48:24;;;;;;;4.75;2.00;;;;;;;7.58;65.88;102683.34;4987962;28;20026;-87
2021/12/19 10:50:58;;;;;;;4.10;2.40;;;;;;;7.61;65.98;102674.81;4987012;28;20423;-87
2021/12/19 10:53:34;;;;;;;5.20;2.42;;;;;;;7.66;65.76;102675.78;4983758;28;20046;-87
2021/12/19 10:56:01;;;;;;;5.63;2.70;;;;;;;7.55;65.23;102669.50;4986181;28;20438;-87
2021/12/19 10:58:31;;;;;;;4.57;3.08;;;;;;;7.46;66.20;102670.19;4987549;28;20046;-89
2021/12/19 11:01:14;;;;;;;4.38;2.72;;;;;;;7.85;64.67;102667.53;4987841;28;20447;-88
2021/12/19 11:04:01;;;;;;;5.20;2.88;;;;;;;7.95;64.93;102661.72;4982364;28;20038;-88
2021/12/19 11:06:48;;;;;;;3.80;2.53;;;;;;;7.56;66.59;102663.47;4985491;28;20046;-87
2021/12/19 11:09:26;;;;;;;4.40;2.25;;;;;;;7.68;65.91;102656.84;4985952;28;20039;-87
2021/12/19 11:11:57;;;;;;;5.90;2.80;;;;;;;7.69;65.29;102648.25;4985405;28;20018;-87
2021/12/19 11:14:37;;;;;;;3.90;2.15;;;;;;;7.82;65.34;102641.59;4984992;28;20046;-87
2021/12/19 11:17:15;;;;;;;4.38;2.30;;;;;;;7.69;65.55;102642.22;4983247;28;20411;-86
2021/12/19 11:19:42;;;;;;;8.05;3.22;;;;;;;7.89;64.71;102643.47;4988578;28;20121;-87
2021/12/19 11:22:08;;;;;;;5.07;2.47;;;;;;;7.50;66.50;102638.34;4988027;28;20561;-87
2021/12/19 11:24:34;;;;;;;4.45;2.40;;;;;;;7.44;66.93;102630.47;4986911;28;20406;-87
2021/12/19 11:27:02;;;;;;;6.63;2.63;;;;;;;7.66;66.47;102622.34;4990754;28;20102;-87
2021/12/19 11:29:28;;;;;;;3.85;2.45;;;;;;;7.73;66.87;102625.91;4990077;28;20034;-87
2021/12/19 11:32:00;;;;;;;4.07;2.05;;;;;;;7.82;65.41;102620.06;4988146;28;20090;-87
2021/12/19 11:34:56;;;;;;;4.40;2.25;;;;;;;7.91;65.21;102605.56;4989174;28;20034;-87
2021/12/19 11:37:44;;;;;;;4.72;2.10;;;;;;;7.92;65.34;102604.72;4988513;28;20048;-87
2021/12/19 11:40:15;;;;;;;6.75;3.28;;;;;;;7.60;65.76;102600.63;4988721;28;20030;-89
2021/12/19 11:42:41;;;;;;;5.93;3.67;;;;;;;7.53;66.65;102607.38;4985982;28;20057;-89
2021/12/19 11:48:00;;;;;;;5.60;3.05;;;;;;;7.56;66.62;102604.88;4987555;28;20022;-88
2021/12/19 11:50:32;;;;;;;5.05;2.50;;;;;;;7.30;67.09;102594.81;4985421;28;20035;-87
2021/12/19 11:53:04;;;;;;;4.88;3.20;;;;;;;7.46;67.50;102590.03;4986322;28;20031;-87
2021/12/19 11:55:34;;;;;;;6.18;3.17;;;;;;;7.68;66.77;102591.31;4991473;28;20073;-86
2021/12/19 11:58:08;;;;;;;5.63;3.25;;;;;;;7.75;66.50;102581.97;4984912;28;20041;-86
2021/12/19 12:00:34;;;;;;;6.78;3.22;;;;;;;7.51;67.26;102583.22;4987894;28;20038;-86
2021/12/19 12:03:11;;;;;;;5.63;3.47;;;;;;;7.64;66.76;102574.00;4988513;28;20041;-86
2021/12/19 12:05:37;;;;;;;6.70;3.42;;;;;;;7.72;67.15;102569.84;4989506;28;20069;-86
2021/12/19 12:08:07;;;;;;;8.25;4.35;;;;;;;7.40;68.10;102582.13;4988538;28;20547;-86
2021/12/19 12:10:51;;;;;;;7.10;3.58;;;;;;;7.76;67.41;102566.44;4990095;28;20041;-86
2021/12/19 12:13:34;;;;;;;5.40;3.20;;;;;;;7.65;68.50;102566.25;4981610;28;20042;-83
2021/12/19 12:16:11;;;;;;;7.10;3.47;;;;;;;7.88;67.81;102563.25;4995166;28;20038;-83
2021/12/19 12:18:42;;;;;;;7.10;3.78;;;;;;;7.54;68.02;102553.97;4985697;28;20168;-83
2021/12/19 12:24:05;;;;;;;6.10;4.28;;;;;;;7.31;68.39;102550.03;4983924;28;20628;-83
2021/12/19 12:26:43;;;;;;;9.25;4.47;;;;;;;7.77;67.25;102546.63;4984588;28;20406;-83
2021/12/19 12:29:11;;;;;;;7.00;3.88;;;;;;;7.73;67.50;102545.72;4980038;28;20727;-83
2021/12/19 12:31:38;;;;;;;7.93;4.10;;;;;;;7.75;68.28;102543.16;4979706;28;20499;-84
2021/12/19 12:34:08;;;;;;;8.77;5.15;;;;;;;7.82;67.37;102543.28;4980316;28;20030;-84
2021/12/19 12:36:34;;;;;;;8.77;4.85;;;;;;;7.81;67.44;102540.69;4984685;28;20034;-83